Time;durP1;ratioP1;P1;durP2;ratioP2;P2;SDS_P1;SDS_P2;PMS_P1;PMS_P2;Temp;Humidity;BMP_temperature;BMP_pressure;BME280_temperature;BME280_humidity;BME280_pressure;Samples;Min_cycle;Max_cycle;Signal;HPM_P1;HPM_P2
2021/11/01 05:00:27;;;;;;;6.47;1.70;;;11.70;99.90;;;;;;5986718;23;20588;-69
2021/11/01 05:03:00;;;;;;;5.97;1.80;;;11.70;99.90;;;;;;4995024;28;20442;-69
2021/11/01 05:05:27;;;;;;;5.70;1.43;;;11.70;99.90;;;;;;4995954;28;20446;-69
2021/11/01 05:07:54;;;;;;;5.00;1.20;;;11.70;99.90;;;;;;4995607;28;20458;-69
2021/11/01 05:10:25;;;;;;;5.83;1.30;;;11.80;99.90;;;;;;4994783;28;20464;-69
2021/11/01 05:12:51;;;;;;;2.83;1.23;;;11.90;99.90;;;;;;4994716;28;20472;-69
2021/11/01 05:15:25;;;;;;;6.50;1.40;;;11.80;99.90;;;;;;4994690;28;20461;-68
2021/11/01 05:17:56;;;;;;;4.70;1.50;;;11.80;99.90;;;;;;4994759;28;20446;-68
2021/11/01 05:20:27;;;;;;;4.63;1.57;;;11.80;99.90;;;;;;4994723;28;20831;-68
2021/11/01 05:23:04;;;;;;;1.80;1.20;;;11.80;99.90;;;;;;4994608;28;20437;-68
2021/11/01 05:25:36;;;;;;;2.90;1.50;;;11.80;99.90;;;;;;4994710;28;20469;-68
2021/11/01 05:28:10;;;;;;;11.20;1.50;;;11.80;99.90;;;;;;4994808;28;20441;-68
2021/11/01 05:30:39;;;;;;;3.10;1.10;;;11.70;99.90;;;;;;4995011;28;20496;-68
2021/11/01 05:33:27;;;;;;;4.63;1.43;;;11.80;99.90;;;;;;4994510;28;20544;-68
2021/11/01 05:35:54;;;;;;;5.23;1.50;;;11.80;99.90;;;;;;4994475;28;20496;-68
2021/11/01 05:38:21;;;;;;;3.10;1.60;;;11.80;99.90;;;;;;4994096;28;20945;-69
2021/11/01 05:40:48;;;;;;;4.63;1.83;;;11.70;99.90;;;;;;4994482;28;20482;-69
2021/11/01 05:43:14;;;;;;;3.13;1.67;;;11.70;99.90;;;;;;4994527;28;20457;-69
2021/11/01 05:45:41;;;;;;;3.00;1.90;;;11.70;99.90;;;;;;4994363;28;20455;-69
2021/11/01 05:48:09;;;;;;;5.20;2.30;;;11.70;99.90;;;;;;4994624;28;20468;-70
2021/11/01 05:50:37;;;;;;;4.23;1.70;;;11.70;99.90;;;;;;4996385;28;20481;-70
2021/11/01 05:53:08;;;;;;;5.43;1.83;;;11.80;99.90;;;;;;4998605;28;20482;-70
2021/11/01 05:55:40;;;;;;;5.30;2.30;;;11.70;99.90;;;;;;4998088;28;20905;-70
2021/11/01 05:58:12;;;;;;;6.93;1.67;;;11.80;99.90;;;;;;4998390;28;20438;-69
2021/11/01 06:03:34;;;;;;;4.67;1.83;;;11.70;99.90;;;;;;4992513;28;20445;-70
2021/11/01 06:09:04;;;;;;;6.63;2.10;;;11.70;99.90;;;;;;4989597;28;20462;-70
2021/11/01 06:14:16;;;;;;;5.73;2.07;;;11.60;99.90;;;;;;4998143;28;20501;-69
2021/11/01 06:16:43;;;;;;;4.27;2.20;;;11.60;99.90;;;;;;4998000;28;20922;-69
2021/11/01 06:19:11;;;;;;;7.80;2.43;;;11.60;99.90;;;;;;4997948;28;20505;-70
2021/11/01 06:21:37;;;;;;;4.77;2.60;;;11.60;99.90;;;;;;4997902;28;20473;-70
2021/11/01 06:24:17;;;;;;;6.10;3.00;;;11.60;99.90;;;;;;4998364;28;20449;-70
2021/11/01 06:26:44;;;;;;;4.80;2.70;;;11.60;99.90;;;;;;4997732;28;20510;-70
2021/11/01 06:29:10;;;;;;;3.63;2.30;;;11.60;99.90;;;;;;4997703;28;20460;-69
2021/11/01 06:31:44;;;;;;;7.27;3.10;;;11.50;99.90;;;;;;4997372;28;21011;-70
2021/11/01 06:34:25;;;;;;;3.63;2.20;;;11.40;99.90;;;;;;4997783;28;20426;-70
2021/11/01 06:39:53;;;;;;;2.90;1.80;;;11.40;99.90;;;;;;4998071;28;20464;-70
2021/11/01 06:42:36;;;;;;;4.10;1.93;;;11.40;99.90;;;;;;4998074;28;20473;-70
2021/11/01 06:45:30;;;;;;;3.70;2.00;;;11.40;99.90;;;;;;4998614;28;20585;-69
2021/11/01 06:51:06;;;;;;;5.90;2.00;;;11.30;99.90;;;;;;4997263;28;20452;-70
2021/11/01 06:56:41;;;;;;;2.77;1.50;;;11.20;99.90;;;;;;4997365;28;20449;-71
2021/11/01 07:15:49;;;;;;;4.10;1.30;;;11.10;99.90;;;;;;4997545;28;20794;-70
2021/11/01 07:18:19;;;;;;;3.20;1.67;;;11.10;99.90;;;;;;4997329;28;20445;-70
2021/11/01 07:20:55;;;;;;;1.10;1.07;;;11.10;99.90;;;;;;4996598;28;20478;-71
2021/11/01 07:23:52;;;;;;;2.97;1.30;;;11.00;99.90;;;;;;4996802;28;20438;-70
2021/11/01 08:21:41;;;;;;;2.57;1.80;;;10.80;99.90;;;;;;4996058;28;20457;-71
2021/11/01 08:29:58;;;;;;;1.90;0.90;;;10.80;99.90;;;;;;4957998;28;20962;-68
2021/11/01 08:35:55;;;;;;;1.73;0.73;;;10.80;99.90;;;;;;4997127;28;20501;-70
2021/11/01 08:44:47;;;;;;;1.10;0.80;;;10.90;99.90;;;;;;5077447;28;20497;-68
2021/11/01 08:47:33;;;;;;;3.07;1.10;;;10.80;99.90;;;;;;5083974;28;20418;-68
2021/11/01 09:04:03;;;;;;;2.83;1.13;;;10.70;99.90;;;;;;5036256;28;20532;-72
2021/11/01 09:20:16;;;;;;;1.57;1.13;;;11.10;99.90;;;;;;5070822;28;20459;-71
2021/11/01 09:25:44;;;;;;;1.70;1.57;;;11.10;99.90;;;;;;5070560;28;20496;-73
2021/11/01 09:28:13;;;;;;;2.07;1.93;;;11.10;99.90;;;;;;5071073;28;20434;-72
2021/11/01 09:36:18;;;;;;;2.43;1.20;;;11.20;99.90;;;;;;5071240;28;20414;-72
2021/11/01 09:39:02;;;;;;;1.63;1.53;;;11.10;99.90;;;;;;5070967;28;20492;-72
2021/11/01 09:41:30;;;;;;;2.70;1.30;;;11.10;99.90;;;;;;5070410;28;20465;-72
2021/11/01 09:43:58;;;;;;;2.23;1.30;;;11.10;99.90;;;;;;5069700;28;20961;-72
2021/11/01 09:46:29;;;;;;;1.10;1.00;;;11.10;99.90;;;;;;5069997;28;20458;-73
2021/11/01 09:49:12;;;;;;;1.30;1.20;;;11.20;99.90;;;;;;5070056;28;20445;-72
2021/11/01 09:51:39;;;;;;;2.47;0.90;;;11.20;99.90;;;;;;5062358;28;20466;-72
2021/11/01 09:54:07;;;;;;;2.03;1.17;;;11.30;99.90;;;;;;5056800;28;20451;-73
2021/11/01 09:56:46;;;;;;;2.73;2.60;;;11.40;99.90;;;;;;5056540;28;20516;-73
2021/11/01 09:59:13;;;;;;;1.23;1.13;;;11.50;99.90;;;;;;5056713;28;20549;-73
2021/11/01 10:01:42;;;;;;;2.70;1.30;;;11.40;99.90;;;;;;5056407;28;20483;-72
2021/11/01 10:04:16;;;;;;;1.70;1.03;;;11.40;99.90;;;;;;5056041;28;20976;-72
2021/11/01 10:06:43;;;;;;;2.70;1.20;;;11.40;99.90;;;;;;5056350;28;20463;-73
2021/11/01 10:09:13;;;;;;;0.90;0.90;;;11.40;99.90;;;;;;5056461;28;20455;-72
2021/11/01 10:11:44;;;;;;;2.70;1.10;;;11.30;99.90;;;;;;5057062;28;20566;-72
2021/11/01 10:14:13;;;;;;;2.20;1.10;;;11.30;99.90;;;;;;5060548;28;20446;-72
2021/11/01 10:19:31;;;;;;;2.73;1.07;;;11.20;99.90;;;;;;5064467;28;20462;-73
2021/11/01 10:22:02;;;;;;;1.43;1.10;;;11.20;99.90;;;;;;5061107;28;20982;-72
2021/11/01 10:24:35;;;;;;;3.30;1.33;;;11.30;99.90;;;;;;5056963;28;20431;-72
2021/11/01 10:27:06;;;;;;;1.87;1.13;;;11.30;99.90;;;;;;5056594;28;20435;-72
2021/11/01 10:29:33;;;;;;;1.13;1.00;;;11.30;99.90;;;;;;5056063;28;20782;-72
2021/11/01 10:32:02;;;;;;;3.73;2.07;;;11.20;99.90;;;;;;5055742;28;20529;-72
2021/11/01 10:34:31;;;;;;;2.50;1.00;;;11.30;99.90;;;;;;5055981;28;20522;-73
2021/11/01 10:37:00;;;;;;;0.93;0.93;;;11.30;99.90;;;;;;5056616;28;20501;-72
2021/11/01 10:39:28;;;;;;;1.40;1.00;;;11.40;99.90;;;;;;5057096;28;20463;-73
2021/11/01 10:42:05;;;;;;;1.53;0.80;;;11.30;99.90;;;;;;5060418;28;20471;-73
2021/11/01 11:12:29;;;;;;;1.13;1.03;;;11.50;99.90;;;;;;5055161;28;20561;-73
2021/11/01 11:14:58;;;;;;;4.00;0.87;;;11.50;99.90;;;;;;5055235;28;20526;-72
2021/11/01 11:17:33;;;;;;;0.70;0.70;;;11.50;99.90;;;;;;5055077;28;20462;-72
2021/11/01 11:32:07;;;;;;;1.70;1.50;;;11.70;99.90;;;;;;5047294;28;20663;-72
2021/11/01 11:40:46;;;;;;;2.50;1.00;;;12.10;99.90;;;;;;5053856;28;20497;-72
2021/11/01 11:48:48;;;;;;;0.70;0.70;;;12.40;99.90;;;;;;5054580;28;20419;-72
2021/11/01 11:51:15;;;;;;;2.10;1.10;;;12.40;99.90;;;;;;5054128;28;20463;-72
2021/11/01 11:53:57;;;;;;;3.20;0.87;;;12.30;99.90;;;;;;5054306;28;20820;-72
2021/11/01 11:56:29;;;;;;;1.10;1.00;;;12.40;99.90;;;;;;5054364;28;20446;-73
2021/11/01 11:59:00;;;;;;;0.90;0.90;;;12.40;99.90;;;;;;5054277;28;20435;-72
2021/11/01 12:01:28;;;;;;;2.97;1.30;;;12.40;99.90;;;;;;5053973;28;20479;-72
2021/11/01 12:03:56;;;;;;;1.70;1.00;;;12.30;99.90;;;;;;5054100;28;20455;-72
2021/11/01 12:06:43;;;;;;;0.80;0.80;;;12.20;99.90;;;;;;5053869;28;20450;-72
2021/11/01 12:09:15;;;;;;;1.23;1.00;;;12.20;99.90;;;;;;5053739;28;20512;-72
2021/11/01 12:12:09;;;;;;;0.83;0.83;;;12.30;99.90;;;;;;5054078;28;20475;-73
2021/11/01 12:17:00;;;;;;;3.20;0.90;;;12.30;99.90;;;;;;5054043;28;20443;-72
2021/11/01 12:17:28;;;;;;;1.13;1.00;;;12.20;99.90;;;;;;5053580;28;20926;-73
2021/11/01 12:20:04;;;;;;;1.13;1.13;;;12.20;99.90;;;;;;5054159;28;20466;-72
2021/11/01 12:22:36;;;;;;;0.90;0.90;;;12.20;99.90;;;;;;5073114;28;20469;-72
2021/11/01 12:25:08;;;;;;;2.53;1.13;;;12.20;99.90;;;;;;5076089;28;20445;-72
2021/11/01 12:27:39;;;;;;;1.53;1.20;;;12.20;99.90;;;;;;5075748;28;20508;-71
2021/11/01 12:30:12;;;;;;;1.57;1.10;;;12.20;99.90;;;;;;5057576;28;20452;-72
2021/11/01 12:32:40;;;;;;;1.00;0.93;;;12.20;99.90;;;;;;5053931;28;20481;-71
2021/11/01 12:35:14;;;;;;;2.57;1.10;;;12.20;99.90;;;;;;5053572;28;20553;-72
2021/11/01 12:37:47;;;;;;;1.03;1.03;;;12.20;99.90;;;;;;5053773;28;20436;-73
2021/11/01 12:40:24;;;;;;;1.87;1.30;;;12.20;99.90;;;;;;5053034;28;20993;-73
2021/11/01 12:43:08;;;;;;;3.50;1.80;;;12.10;99.90;;;;;;5053467;28;20489;-73
2021/11/01 12:59:42;;;;;;;4.13;1.63;;;11.80;99.90;;;;;;5028578;28;20500;-71
2021/11/01 13:02:16;;;;;;;2.17;2.07;;;11.70;99.90;;;;;;5053251;28;20471;-71
2021/11/01 13:04:43;;;;;;;2.27;2.00;;;11.80;99.90;;;;;;5054768;28;20471;-72
2021/11/01 13:07:33;;;;;;;1.90;1.80;;;11.80;99.90;;;;;;5053625;28;20949;-72
2021/11/01 13:10:10;;;;;;;3.13;2.60;;;11.90;99.90;;;;;;5054242;28;20442;-72
2021/11/01 13:12:47;;;;;;;2.93;2.50;;;11.90;99.90;;;;;;5056252;28;20470;-73
2021/11/01 13:20:48;;;;;;;3.10;2.90;;;11.80;99.90;;;;;;5054907;28;20474;-72
2021/11/01 13:23:15;;;;;;;3.30;3.00;;;11.80;99.90;;;;;;5055010;28;20466;-72
2021/11/01 13:26:01;;;;;;;2.93;2.53;;;11.80;99.90;;;;;;5054015;28;20450;-71
2021/11/01 13:28:46;;;;;;;3.17;2.97;;;11.90;99.90;;;;;;5057723;28;20452;-72
2021/11/01 13:36:51;;;;;;;2.53;2.33;;;11.90;99.90;;;;;;5058161;28;20418;-71
2021/11/01 13:39:25;;;;;;;4.17;2.63;;;12.00;99.90;;;;;;5057740;28;20961;-71
2021/11/01 13:41:52;;;;;;;2.80;2.50;;;12.00;99.90;;;;;;5057742;28;20519;-72
2021/11/01 13:44:23;;;;;;;3.10;2.60;;;11.90;99.90;;;;;;5056783;28;21006;-69
2021/11/01 13:46:52;;;;;;;2.87;2.57;;;11.90;99.90;;;;;;5056973;28;20443;-69
2021/11/01 13:49:20;;;;;;;3.00;2.50;;;11.90;99.90;;;;;;5056723;28;20450;-72
2021/11/01 13:51:49;;;;;;;2.60;2.50;;;11.90;99.90;;;;;;5056243;28;20507;-72
2021/11/01 13:54:26;;;;;;;3.10;2.70;;;12.00;99.90;;;;;;5056785;28;20473;-71
2021/11/01 13:57:00;;;;;;;2.83;2.53;;;12.00;99.90;;;;;;5059758;28;20489;-72
2021/11/01 13:59:43;;;;;;;2.23;2.13;;;12.00;99.90;;;;;;5056547;28;20439;-72
2021/11/01 14:11:04;;;;;;;4.40;2.23;;;12.00;99.90;;;;;;5052264;28;20503;-73
2021/11/01 14:13:42;;;;;;;2.63;2.43;;;12.10;99.90;;;;;;5056396;28;20795;-71
2021/11/01 14:19:05;;;;;;;3.00;2.63;;;12.20;99.90;;;;;;5056257;28;20501;-72
2021/11/01 14:30:07;;;;;;;2.80;2.50;;;12.30;99.90;;;;;;5054010;28;20439;-71
2021/11/01 14:35:58;;;;;;;4.23;2.60;;;12.50;99.90;;;;;;5017833;28;20530;-72
2021/11/01 15:15:05;;;;;;;2.67;2.57;;;12.50;99.90;;;;;;5059977;28;20419;-71
2021/11/01 15:17:49;;;;;;;5.43;2.60;;;12.40;99.90;;;;;;5063820;28;20439;-71
2021/11/01 15:20:29;;;;;;;2.30;2.10;;;12.50;99.90;;;;;;5064560;28;20466;-71
2021/11/01 15:23:22;;;;;;;2.67;2.47;;;12.50;99.90;;;;;;5061285;28;20832;-70
2021/11/01 15:26:09;;;;;;;3.30;2.87;;;12.50;99.90;;;;;;5066777;28;20435;-70
2021/11/01 15:34:32;;;;;;;2.77;2.57;;;12.40;99.90;;;;;;5058868;28;20434;-71
2021/11/01 15:37:29;;;;;;;2.37;2.03;;;12.30;99.90;;;;;;5057721;28;20431;-71
2021/11/01 15:40:20;;;;;;;2.43;2.30;;;12.30;99.90;;;;;;5054834;28;20462;-70
2021/11/01 16:16:38;;;;;;;4.00;2.40;;;11.90;99.90;;;;;;5056769;28;20422;-71
2021/11/01 16:19:07;;;;;;;2.50;2.30;;;12.00;99.90;;;;;;5054974;28;20461;-71
2021/11/01 16:21:34;;;;;;;2.47;2.30;;;12.10;99.90;;;;;;5055673;28;20479;-71
2021/11/01 16:24:01;;;;;;;4.70;2.90;;;12.10;99.90;;;;;;5057647;28;20456;-71
2021/11/01 16:26:29;;;;;;;4.00;2.90;;;12.10;99.90;;;;;;5064252;28;20457;-71
2021/11/01 16:29:03;;;;;;;4.80;2.47;;;12.10;99.90;;;;;;5062561;28;20546;-71
2021/11/01 16:31:36;;;;;;;3.60;3.30;;;12.10;99.90;;;;;;5060471;28;20524;-71
2021/11/01 16:34:11;;;;;;;2.63;2.43;;;11.90;99.90;;;;;;5058938;28;20855;-69
2021/11/01 16:37:01;;;;;;;3.00;2.80;;;12.00;99.90;;;;;;5056399;28;20434;-71
2021/11/01 16:39:31;;;;;;;3.30;3.00;;;12.00;99.90;;;;;;5057123;28;20465;-69
2021/11/01 16:41:59;;;;;;;2.90;2.70;;;12.10;99.90;;;;;;5058576;28;20573;-68
2021/11/01 16:44:30;;;;;;;3.87;3.57;;;12.00;99.90;;;;;;5058819;28;20454;-68
2021/11/01 16:46:57;;;;;;;3.27;2.67;;;12.00;99.90;;;;;;5058342;28;20442;-68
2021/11/01 16:49:25;;;;;;;4.13;3.00;;;12.00;99.90;;;;;;5057734;28;20454;-69
2021/11/01 16:51:53;;;;;;;3.70;3.40;;;12.10;99.90;;;;;;5055248;28;20471;-70
2021/11/01 16:54:24;;;;;;;3.90;3.00;;;12.10;99.90;;;;;;5054533;28;20458;-70
2021/11/01 16:57:06;;;;;;;3.33;3.03;;;12.10;99.90;;;;;;5055431;28;20439;-70
2021/11/01 16:59:45;;;;;;;4.23;3.10;;;12.10;99.90;;;;;;5055017;28;20435;-71
2021/11/01 17:05:10;;;;;;;3.70;3.40;;;12.10;99.90;;;;;;5054849;28;20541;-69
2021/11/01 17:07:49;;;;;;;3.90;2.97;;;12.10;99.90;;;;;;5059079;28;20505;-71
2021/11/01 17:10:34;;;;;;;4.03;3.40;;;12.10;99.90;;;;;;5059529;28;20431;-69
2021/11/01 17:21:34;;;;;;;3.53;2.90;;;12.10;99.90;;;;;;5057271;28;20474;-66
2021/11/01 17:24:08;;;;;;;8.10;3.70;;;12.10;99.90;;;;;;5057214;28;20864;-69
2021/11/01 17:26:47;;;;;;;3.40;3.20;;;12.10;99.90;;;;;;5057388;28;20439;-67
2021/11/01 17:29:33;;;;;;;4.60;4.10;;;12.00;99.90;;;;;;5062985;28;20489;-67
2021/11/01 17:34:59;;;;;;;4.93;4.60;;;11.80;99.90;;;;;;5040710;28;20439;-67
2021/11/01 17:37:35;;;;;;;5.70;4.30;;;11.80;99.90;;;;;;5061502;28;20852;-67
2021/11/01 18:38:55;;;;;;;5.07;4.57;;;11.30;99.90;;;;;;5091469;28;20469;-67
2021/11/01 18:41:23;;;;;;;5.97;4.90;;;11.30;99.90;;;;;;5091348;28;20870;-66
2021/11/01 18:44:30;;;;;;;5.20;4.70;;;11.30;99.90;;;;;;5090862;28;20949;-66
2021/11/01 18:52:46;;;;;;;5.30;4.80;;;11.20;99.90;;;;;;5088160;28;20786;-67
2021/11/01 18:55:13;;;;;;;5.80;5.30;;;11.20;99.90;;;;;;5090861;28;20453;-66
2021/11/01 18:57:45;;;;;;;9.97;5.40;;;11.20;99.90;;;;;;5090933;28;20442;-67
2021/11/01 19:00:15;;;;;;;7.17;5.80;;;11.20;99.90;;;;;;5090908;28;20446;-66
2021/11/01 19:02:46;;;;;;;5.30;4.90;;;11.30;99.90;;;;;;5091147;28;20477;-66
2021/11/01 19:05:25;;;;;;;6.60;5.53;;;11.30;99.90;;;;;;5090991;28;20427;-66
2021/11/01 19:07:58;;;;;;;5.53;5.03;;;11.30;99.90;;;;;;5090932;28;20434;-66
2021/11/01 20:06:26;;;;;;;6.07;3.50;;;10.40;99.90;;;;;;5076751;28;20542;-66
2021/11/01 20:14:40;;;;;;;2.97;2.77;;;10.20;99.90;;;;;;5060451;28;20442;-66
2021/11/01 21:26:51;;;;;;;2.40;2.20;;;9.40;99.90;;;;;;5074558;28;20492;-67
2021/11/01 21:29:19;;;;;;;2.10;2.00;;;9.40;99.90;;;;;;5075666;28;20450;-68
2021/11/01 21:31:46;;;;;;;2.00;1.90;;;9.30;99.90;;;;;;5074452;28;20483;-68
2021/11/01 21:34:16;;;;;;;3.00;2.60;;;9.30;99.90;;;;;;5074965;28;20431;-68
2021/11/01 21:36:43;;;;;;;2.20;2.00;;;9.30;99.90;;;;;;5074647;28;20530;-70
2021/11/01 21:39:10;;;;;;;2.00;1.90;;;9.30;99.90;;;;;;5075466;28;20458;-68
2021/11/01 21:41:37;;;;;;;2.50;2.30;;;9.20;99.90;;;;;;5074808;28;20470;-68
2021/11/01 21:44:04;;;;;;;1.90;1.80;;;9.20;99.90;;;;;;5074824;28;20818;-68
2021/11/01 21:46:32;;;;;;;2.40;2.30;;;9.20;99.90;;;;;;5074666;28;20471;-68
2021/11/01 21:48:59;;;;;;;2.30;2.20;;;9.20;99.90;;;;;;5074861;28;20455;-68
2021/11/01 21:51:26;;;;;;;2.80;2.60;;;9.20;99.90;;;;;;5074930;28;20479;-68
2021/11/01 21:54:03;;;;;;;2.40;2.20;;;9.20;99.90;;;;;;5074710;28;20449;-69
2021/11/01 21:56:32;;;;;;;2.93;2.73;;;9.20;99.90;;;;;;5074892;28;20453;-68
2021/11/01 21:59:21;;;;;;;3.93;2.90;;;9.20;99.90;;;;;;5074954;28;20482;-67
2021/11/01 22:10:20;;;;;;;1.83;1.73;;;9.00;99.90;;;;;;5080205;28;20470;-68
2021/11/01 22:18:30;;;;;;;3.03;1.80;;;8.80;99.90;;;;;;5044838;28;20469;-69
2021/11/01 22:21:00;;;;;;;2.63;2.43;;;8.80;99.90;;;;;;5079373;28;20477;-69
2021/11/01 22:23:36;;;;;;;1.73;1.63;;;8.80;99.90;;;;;;5079801;28;20431;-69
2021/11/01 22:26:06;;;;;;;3.50;1.77;;;8.90;99.90;;;;;;5080100;28;20947;-68
2021/11/01 22:34:16;;;;;;;2.10;2.00;;;8.90;99.90;;;;;;5094960;28;20434;-67
2021/11/01 22:39:33;;;;;;;1.87;1.77;;;9.00;99.90;;;;;;5092209;28;20419;-67
2021/11/01 22:42:17;;;;;;;5.93;2.63;;;9.00;99.90;;;;;;5074937;28;20474;-68
2021/11/01 22:45:07;;;;;;;4.93;1.90;;;9.00;99.90;;;;;;5074934;28;20442;-67
2021/11/01 22:55:55;;;;;;;1.70;1.60;;;9.10;99.90;;;;;;5075102;28;20951;-67
2021/11/01 22:58:23;;;;;;;3.13;2.30;;;9.10;99.90;;;;;;5073384;28;20449;-68
